createdAt,value
2018-05-02T00:02:16.111Z,6.90
2018-05-02T00:04:44.337Z,6.90
2018-05-02T00:07:12.592Z,6.90
2018-05-02T00:09:41.599Z,6.80
2018-05-02T00:12:09.849Z,6.70
2018-05-02T00:14:38.100Z,6.80
2018-05-02T00:17:06.387Z,6.70
2018-05-02T00:19:35.404Z,6.60
2018-05-02T00:22:03.688Z,6.60
2018-05-02T00:24:31.931Z,6.60
2018-05-02T00:27:01.220Z,6.50
2018-05-02T00:29:29.447Z,6.50
2018-05-02T00:31:57.695Z,6.50
2018-05-02T00:34:26.043Z,6.50
2018-05-02T00:36:54.281Z,6.50
2018-05-02T00:39:22.514Z,6.40
2018-05-02T00:41:50.775Z,6.40
2018-05-02T00:44:19.034Z,6.30
2018-05-02T00:46:47.290Z,6.30
2018-05-02T00:49:16.371Z,6.30
2018-05-02T00:51:44.633Z,6.20
2018-05-02T00:54:12.876Z,6.20
2018-05-02T00:56:41.900Z,6.20
2018-05-02T00:59:10.163Z,6.10
2018-05-02T01:01:38.425Z,6.10
2018-05-02T01:04:07.450Z,6.10
2018-05-02T01:06:35.707Z,6.00
2018-05-02T01:09:03.945Z,6.10
2018-05-02T01:11:32.207Z,6.10
2018-05-02T01:14:00.795Z,6.00
2018-05-02T01:16:29.044Z,6.00
2018-05-02T01:18:57.351Z,6.00
2018-05-02T01:21:26.382Z,5.90
2018-05-02T01:23:54.637Z,5.90
2018-05-02T01:26:23.641Z,5.90
2018-05-02T01:28:51.913Z,5.80
2018-05-02T01:31:20.154Z,5.90
2018-05-02T01:33:48.631Z,5.80
2018-05-02T01:36:16.854Z,5.90
2018-05-02T01:38:45.131Z,5.80
2018-05-02T01:41:13.373Z,5.80
2018-05-02T01:43:42.508Z,5.70
2018-05-02T01:46:10.713Z,5.70
2018-05-02T01:51:38.736Z,5.70
2018-05-02T01:54:07.850Z,5.70
2018-05-02T01:56:36.083Z,5.70
2018-05-02T01:59:04.357Z,5.70
2018-05-02T02:01:32.619Z,5.70
2018-05-02T02:04:00.886Z,5.70
2018-05-02T02:06:29.145Z,5.60
2018-05-02T02:08:57.405Z,5.60
2018-05-02T02:11:25.713Z,5.60
2018-05-02T02:13:54.004Z,5.60
2018-05-02T02:16:22.253Z,5.60
2018-05-02T02:18:51.177Z,5.50
2018-05-02T02:21:19.417Z,5.60
2018-05-02T02:23:47.687Z,5.50
2018-05-02T02:26:15.976Z,5.50
2018-05-02T02:28:44.225Z,5.50
2018-05-02T02:31:12.526Z,5.50
2018-05-02T02:33:40.829Z,5.50
2018-05-02T02:36:09.093Z,5.50
2018-05-02T02:38:38.258Z,5.40
2018-05-02T02:41:06.533Z,5.40
2018-05-02T02:43:34.815Z,5.40
2018-05-02T02:46:03.074Z,5.30
2018-05-02T02:48:31.333Z,5.30
2018-05-02T02:50:59.604Z,5.30
2018-05-02T02:53:27.861Z,5.30
2018-05-02T02:55:56.917Z,5.20
2018-05-02T02:58:25.240Z,5.10
2018-05-02T03:00:53.539Z,5.10
2018-05-02T03:03:21.775Z,5.10
2018-05-02T03:05:50.045Z,5.10
2018-05-02T03:08:18.309Z,5.00
2018-05-02T03:10:46.569Z,4.90
2018-05-02T03:13:14.854Z,4.90
2018-05-02T03:15:43.202Z,4.90
2018-05-02T03:18:11.469Z,4.90
2018-05-02T03:20:39.779Z,4.90
2018-05-02T03:23:08.046Z,4.80
2018-05-02T03:25:38.702Z,4.70
2018-05-02T03:28:06.943Z,4.70
2018-05-02T03:30:35.198Z,4.70
2018-05-02T03:33:03.565Z,4.70
2018-05-02T03:35:31.822Z,4.70
2018-05-02T03:38:00.066Z,4.70
2018-05-02T03:40:29.941Z,4.70
2018-05-02T03:42:58.221Z,4.60
2018-05-02T03:45:26.493Z,4.70
2018-05-02T03:47:54.777Z,4.70
2018-05-02T03:50:23.048Z,4.60
2018-05-02T03:52:51.325Z,4.60
2018-05-02T03:55:19.592Z,4.60
2018-05-02T03:57:47.873Z,4.60
2018-05-02T04:00:28.063Z,4.60
2018-05-02T04:03:08.138Z,4.60
2018-05-02T04:05:49.047Z,4.50
2018-05-02T04:08:17.349Z,4.50
2018-05-02T04:10:45.613Z,4.50
2018-05-02T04:13:13.878Z,4.40
2018-05-02T04:15:42.165Z,4.50
2018-05-02T04:18:10.426Z,4.50
2018-05-02T04:20:38.702Z,4.50
2018-05-02T04:23:06.998Z,4.60
2018-05-02T04:25:35.241Z,4.60
2018-05-02T04:28:03.505Z,4.60
2018-05-02T04:30:31.776Z,4.70
2018-05-02T04:33:00.014Z,4.70
2018-05-02T04:35:29.035Z,4.90
2018-05-02T04:37:57.335Z,4.80
2018-05-02T04:40:25.593Z,4.90
2018-05-02T04:42:53.862Z,5.00
2018-05-02T04:45:22.120Z,5.00
2018-05-02T04:47:50.382Z,5.10
2018-05-02T04:50:19.408Z,5.70
2018-05-02T04:52:47.813Z,5.60
2018-05-02T04:55:16.080Z,6.20
2018-05-02T04:57:45.038Z,7.30
2018-05-02T05:00:13.514Z,7.20
2018-05-02T05:02:41.764Z,7.80
2018-05-02T05:05:10.896Z,8.70
2018-05-02T05:07:39.172Z,8.60
2018-05-02T05:10:07.425Z,9.00
2018-05-02T05:12:36.421Z,9.50
2018-05-02T05:15:04.690Z,9.40
2018-05-02T05:17:33.690Z,9.90
2018-05-02T05:20:01.957Z,9.80
2018-05-02T05:22:31.046Z,10.40
2018-05-02T05:25:00.067Z,10.70
2018-05-02T05:27:28.333Z,10.60
2018-05-02T05:29:56.614Z,10.80
2018-05-02T05:32:24.855Z,11.00
2018-05-02T05:34:53.936Z,11.40
2018-05-02T05:37:22.366Z,11.40
2018-05-02T05:39:50.611Z,11.50
2018-05-02T05:42:18.869Z,11.60
2018-05-02T05:44:47.943Z,11.90
2018-05-02T05:47:17.730Z,12.00
2018-05-02T05:49:45.990Z,11.90
2018-05-02T05:52:14.363Z,11.90
2018-05-02T05:54:42.623Z,11.90
2018-05-02T05:57:10.893Z,12.00
2018-05-02T05:59:39.920Z,11.90
2018-05-02T06:02:08.189Z,11.80
2018-05-02T06:04:36.450Z,12.00
2018-05-02T06:07:04.878Z,12.10
2018-05-02T06:09:33.067Z,12.20
2018-05-02T06:12:01.318Z,12.30
2018-05-02T06:14:29.561Z,12.50
2018-05-02T06:16:58.095Z,12.40
2018-05-02T06:19:26.313Z,12.40
2018-05-02T06:21:54.646Z,12.30
2018-05-02T06:24:22.978Z,12.10
2018-05-02T06:26:51.383Z,12.00
2018-05-02T06:29:19.918Z,11.80
2018-05-02T06:31:48.392Z,11.50
2018-05-02T06:34:16.549Z,11.10
2018-05-02T06:36:45.562Z,10.80
2018-05-02T06:39:13.860Z,10.70
2018-05-02T06:41:42.113Z,10.60
2018-05-02T06:44:10.390Z,10.50
2018-05-02T06:46:38.640Z,10.40
2018-05-02T06:49:07.712Z,10.30
2018-05-02T06:51:35.940Z,10.20
2018-05-02T06:54:04.197Z,10.20
2018-05-02T06:56:32.540Z,10.20
2018-05-02T06:59:00.785Z,10.20
2018-05-02T07:01:29.014Z,10.30
2018-05-02T07:03:57.278Z,10.30
2018-05-02T07:06:26.286Z,10.30
2018-05-02T07:08:54.539Z,10.30
2018-05-02T07:11:23.548Z,10.30
2018-05-02T07:13:51.806Z,10.30
2018-05-02T07:16:20.982Z,10.40
2018-05-02T07:18:49.267Z,10.30
2018-05-02T07:21:17.514Z,10.40
2018-05-02T07:23:45.785Z,10.40
2018-05-02T07:26:14.034Z,10.60
2018-05-02T07:28:42.301Z,10.70
2018-05-02T07:31:10.545Z,10.90
2018-05-02T07:33:39.591Z,11.10
2018-05-02T07:36:07.844Z,11.10
2018-05-02T07:38:36.163Z,11.20
2018-05-02T07:41:04.437Z,11.20
2018-05-02T07:43:32.860Z,11.30
2018-05-02T07:46:01.396Z,11.40
2018-05-02T07:48:29.641Z,11.50
2018-05-02T07:50:57.889Z,11.60
2018-05-02T07:53:26.183Z,11.70
2018-05-02T07:55:55.433Z,11.80
2018-05-02T07:58:23.673Z,12.00
2018-05-02T08:00:51.937Z,12.10
2018-05-02T08:03:20.190Z,12.20
2018-05-02T08:05:48.471Z,12.20
2018-05-02T08:08:16.722Z,12.30
2018-05-02T08:10:45.799Z,12.40
2018-05-02T08:13:14.123Z,12.40
2018-05-02T08:15:42.514Z,12.50
2018-05-02T08:18:10.902Z,12.60
2018-05-02T08:20:39.245Z,12.70
2018-05-02T08:23:07.499Z,12.70
2018-05-02T08:25:36.551Z,13.00
2018-05-02T08:28:04.790Z,13.00
2018-05-02T08:30:33.045Z,13.10
2018-05-02T08:33:02.070Z,13.40
2018-05-02T08:35:30.329Z,13.40
2018-05-02T08:37:58.580Z,13.50
2018-05-02T08:40:27.620Z,13.60
2018-05-02T08:42:55.940Z,13.60
2018-05-02T08:45:24.253Z,13.80
2018-05-02T08:47:52.508Z,13.80
2018-05-02T08:50:21.526Z,14.00
2018-05-02T08:52:49.949Z,13.90
2018-05-02T08:55:18.337Z,14.10
2018-05-02T08:57:46.584Z,14.30
2018-05-02T09:00:14.831Z,14.40
2018-05-02T09:02:43.134Z,14.40
2018-05-02T09:05:11.400Z,14.50
2018-05-02T09:07:39.644Z,14.50
2018-05-02T09:10:07.985Z,14.60
2018-05-02T09:12:36.221Z,14.60
2018-05-02T09:15:04.525Z,14.60
2018-05-02T09:17:32.807Z,14.60
2018-05-02T09:20:01.055Z,14.70
2018-05-02T09:22:29.303Z,14.80
2018-05-02T09:24:57.566Z,15.00
2018-05-02T09:27:25.850Z,15.10
2018-05-02T09:29:54.089Z,15.20
2018-05-02T09:32:23.114Z,15.30
2018-05-02T09:34:51.369Z,15.30
2018-05-02T09:37:20.645Z,15.70
2018-05-02T09:39:48.889Z,15.60
2018-05-02T09:42:17.203Z,15.80
2018-05-02T09:44:45.460Z,15.70
2018-05-02T09:47:13.725Z,15.70
2018-05-02T09:49:42.004Z,15.70
2018-05-02T09:52:10.279Z,15.80
2018-05-02T09:54:38.537Z,15.80
2018-05-02T09:57:07.681Z,15.90
2018-05-02T09:59:35.910Z,15.80
2018-05-02T10:02:04.179Z,15.90
2018-05-02T10:04:32.511Z,16.00
2018-05-02T10:07:00.692Z,16.10
2018-05-02T10:09:28.961Z,16.30
2018-05-02T10:11:57.989Z,16.30
2018-05-02T10:14:26.232Z,16.30
2018-05-02T10:16:54.511Z,16.40
2018-05-02T10:19:22.777Z,16.40
2018-05-02T10:21:51.824Z,16.40
2018-05-02T10:24:20.070Z,16.40
2018-05-02T10:26:48.341Z,16.50
2018-05-02T10:29:16.601Z,16.60
2018-05-02T10:31:44.890Z,16.50
2018-05-02T10:34:13.125Z,16.40
2018-05-02T10:36:42.171Z,16.40
2018-05-02T10:39:10.597Z,16.40
2018-05-02T10:41:38.938Z,16.50
2018-05-02T10:44:07.189Z,16.60
2018-05-02T10:46:35.441Z,16.60
2018-05-02T10:49:03.703Z,16.80
2018-05-02T10:51:32.847Z,16.80
2018-05-02T10:54:01.088Z,16.80
2018-05-02T10:56:30.126Z,17.10
2018-05-02T10:58:58.409Z,17.00
2018-05-02T11:01:26.677Z,17.10
2018-05-02T11:03:54.962Z,17.30
2018-05-02T11:06:23.193Z,17.40
2018-05-02T11:08:52.390Z,17.40
2018-05-02T11:11:20.701Z,17.50
2018-05-02T11:13:49.236Z,17.50
2018-05-02T11:16:17.625Z,17.30
2018-05-02T11:18:45.906Z,17.50
2018-05-02T11:21:14.144Z,17.50
2018-05-02T11:23:42.497Z,17.50
2018-05-02T11:26:10.742Z,17.60
2018-05-02T11:28:38.997Z,17.70
2018-05-02T11:31:07.347Z,17.80
2018-05-02T11:33:36.377Z,17.80
2018-05-02T11:36:04.613Z,17.80
2018-05-02T11:38:33.636Z,18.10
2018-05-02T11:41:01.888Z,18.10
2018-05-02T11:43:30.930Z,18.30
2018-05-02T11:45:59.237Z,18.20
2018-05-02T11:48:27.455Z,18.40
2018-05-02T11:50:55.713Z,18.40
2018-05-02T11:53:23.977Z,18.40
2018-05-02T11:55:53.026Z,18.40
2018-05-02T11:58:21.269Z,18.40
2018-05-02T12:00:49.533Z,18.40
2018-05-02T12:03:17.781Z,18.50
2018-05-02T12:05:46.858Z,18.60
2018-05-02T12:08:15.140Z,18.50
2018-05-02T12:10:43.397Z,18.60
2018-05-02T12:13:11.654Z,18.70
2018-05-02T12:15:39.925Z,18.70
2018-05-02T12:18:08.193Z,18.70
2018-05-02T12:20:36.563Z,18.80
2018-05-02T12:23:04.829Z,18.80
2018-05-02T12:25:33.093Z,18.90
2018-05-02T12:28:02.100Z,18.90
2018-05-02T12:30:30.572Z,18.90
2018-05-02T12:32:58.817Z,19.10
2018-05-02T12:35:27.104Z,19.10
2018-05-02T12:37:55.425Z,19.00
2018-05-02T12:40:23.710Z,19.00
2018-05-02T12:42:51.977Z,19.10
2018-05-02T12:45:20.237Z,19.20
2018-05-02T12:47:48.495Z,19.20
2018-05-02T12:50:16.747Z,19.30
2018-05-02T12:52:45.761Z,19.50
2018-05-02T12:55:14.026Z,19.50
2018-05-02T12:57:43.049Z,19.70
2018-05-02T13:00:11.639Z,19.60
2018-05-02T13:02:39.913Z,19.80
2018-05-02T13:05:08.153Z,19.70
2018-05-02T13:07:36.421Z,19.80
2018-05-02T13:10:05.426Z,19.90
2018-05-02T13:12:33.692Z,19.80
2018-05-02T13:15:01.968Z,19.80
2018-05-02T13:17:30.205Z,19.80
2018-05-02T13:19:58.474Z,19.90
2018-05-02T13:22:26.718Z,19.90
2018-05-02T13:24:55.166Z,19.90
2018-05-02T13:27:24.197Z,20.00
2018-05-02T13:29:53.418Z,20.00
2018-05-02T13:32:21.664Z,20.10
2018-05-02T13:34:49.929Z,20.10
2018-05-02T13:37:18.468Z,20.10
2018-05-02T13:39:46.707Z,20.00
2018-05-02T13:42:15.058Z,20.00
2018-05-02T13:44:43.327Z,20.00
2018-05-02T13:47:11.574Z,20.00
2018-05-02T13:49:40.606Z,20.10
2018-05-02T13:52:09.351Z,20.00
2018-05-02T13:54:37.588Z,20.20
2018-05-02T13:57:05.941Z,20.20
2018-05-02T13:59:34.195Z,20.10
2018-05-02T14:02:03.229Z,20.20
2018-05-02T14:04:31.483Z,20.10
2018-05-02T14:06:59.759Z,20.20
2018-05-02T14:09:28.089Z,20.20
2018-05-02T14:11:56.351Z,20.20
2018-05-02T14:14:25.406Z,20.10
2018-05-02T14:16:53.710Z,20.00
2018-05-02T14:19:21.961Z,20.10
2018-05-02T14:21:50.289Z,20.20
2018-05-02T14:24:20.029Z,20.20
2018-05-02T14:26:48.317Z,20.20
2018-05-02T14:29:16.566Z,20.40
2018-05-02T14:31:45.602Z,20.50
2018-05-02T14:34:15.413Z,20.60
2018-05-02T14:36:43.666Z,20.70
2018-05-02T14:39:11.950Z,20.60
2018-05-02T14:41:40.221Z,20.60
2018-05-02T14:44:08.485Z,20.50
2018-05-02T14:46:36.787Z,20.30
2018-05-02T14:49:05.032Z,20.20
2018-05-02T14:51:33.505Z,20.10
2018-05-02T14:54:01.788Z,20.10
2018-05-02T14:56:30.039Z,20.20
2018-05-02T14:58:59.081Z,20.40
2018-05-02T15:01:27.330Z,20.30
2018-05-02T15:03:55.571Z,20.40
2018-05-02T15:06:23.837Z,20.40
2018-05-02T15:08:52.097Z,20.50
2018-05-02T15:11:20.377Z,20.50
2018-05-02T15:13:48.647Z,20.60
2018-05-02T15:16:16.911Z,20.70
2018-05-02T15:18:45.166Z,20.80
2018-05-02T15:21:13.433Z,20.80
2018-05-02T15:23:41.828Z,20.90
2018-05-02T15:26:10.106Z,20.70
2018-05-02T15:28:39.228Z,20.50
2018-05-02T15:31:07.473Z,20.40
2018-05-02T15:33:35.737Z,20.30
2018-05-02T15:36:04.022Z,20.00
2018-05-02T15:38:32.318Z,19.90
2018-05-02T15:41:00.601Z,19.90
2018-05-02T15:43:29.037Z,19.70
2018-05-02T15:45:57.285Z,19.60
2018-05-02T15:48:26.460Z,19.30
2018-05-02T15:50:56.216Z,19.30
2018-05-02T15:53:24.531Z,19.30
2018-05-02T15:55:52.832Z,19.40
2018-05-02T15:58:21.243Z,19.40
2018-05-02T16:00:50.245Z,19.20
2018-05-02T16:03:18.713Z,19.20
2018-05-02T16:05:46.989Z,19.10
2018-05-02T16:08:15.253Z,19.10
2018-05-02T16:10:43.538Z,19.10
2018-05-02T16:13:12.081Z,19.10
2018-05-02T16:15:40.337Z,19.10
2018-05-02T16:18:08.607Z,19.00
2018-05-02T16:20:37.661Z,19.00
2018-05-02T16:23:05.965Z,19.00
2018-05-02T16:25:34.205Z,19.00
2018-05-02T16:28:02.477Z,19.00
2018-05-02T16:30:30.733Z,19.10
2018-05-02T16:32:59.258Z,19.00
2018-05-02T16:35:27.699Z,19.10
2018-05-02T16:37:56.722Z,19.20
2018-05-02T16:40:25.065Z,19.10
2018-05-02T16:42:54.127Z,19.30
2018-05-02T16:45:22.377Z,19.30
2018-05-02T16:47:50.648Z,19.50
2018-05-02T16:50:18.930Z,19.50
2018-05-02T16:52:47.234Z,19.50
2018-05-02T16:55:17.040Z,19.30
2018-05-02T16:57:45.359Z,19.30
2018-05-02T17:00:13.729Z,19.40
2018-05-02T17:02:41.947Z,19.40
2018-05-02T17:05:10.204Z,19.40
2018-05-02T17:07:38.441Z,19.30
2018-05-02T17:10:07.482Z,19.10
2018-05-02T17:12:35.737Z,19.10
2018-05-02T17:15:04.010Z,19.10
2018-05-02T17:17:32.283Z,19.00
2018-05-02T17:20:00.748Z,18.90
2018-05-02T17:22:29.795Z,18.90
2018-05-02T17:24:58.106Z,18.80
2018-05-02T17:27:27.142Z,18.80
2018-05-02T17:29:55.425Z,18.80
2018-05-02T17:32:23.707Z,18.70
2018-05-02T17:34:51.963Z,18.70
2018-05-02T17:37:20.193Z,18.50
2018-05-02T17:39:49.303Z,18.40
2018-05-02T17:42:18.321Z,18.30
2018-05-02T17:44:46.645Z,18.20
2018-05-02T17:47:14.974Z,18.20
2018-05-02T17:49:43.300Z,18.20
2018-05-02T17:52:11.553Z,18.10
2018-05-02T17:54:39.841Z,18.10
2018-05-02T17:57:08.113Z,18.10
2018-05-02T17:59:36.378Z,18.10
2018-05-02T18:02:04.634Z,18.10
2018-05-02T18:04:32.907Z,18.00
2018-05-02T18:07:01.176Z,18.10
2018-05-02T18:09:29.430Z,18.00
2018-05-02T18:11:57.813Z,18.00
2018-05-02T18:14:26.085Z,18.00
2018-05-02T18:16:54.363Z,18.00
2018-05-02T18:19:22.661Z,17.90
2018-05-02T18:21:50.970Z,17.90
2018-05-02T18:24:19.510Z,17.80
2018-05-02T18:26:47.767Z,17.70
2018-05-02T18:29:16.760Z,17.50
2018-05-02T18:31:45.066Z,17.50
2018-05-02T18:34:13.330Z,17.40
2018-05-02T18:36:41.581Z,17.40
2018-05-02T18:39:10.600Z,17.10
2018-05-02T18:41:38.894Z,17.10
2018-05-02T18:44:07.191Z,17.10
2018-05-02T18:46:36.943Z,16.80
2018-05-02T18:49:05.329Z,16.80
2018-05-02T18:51:33.590Z,16.80
2018-05-02T18:54:01.864Z,16.60
2018-05-02T18:56:30.997Z,16.40
2018-05-02T18:58:59.316Z,16.40
2018-05-02T19:01:28.344Z,16.30
2018-05-02T19:03:56.700Z,16.20
2018-05-02T19:06:24.889Z,16.20
2018-05-02T19:08:53.184Z,16.10
2018-05-02T19:11:21.493Z,16.00
2018-05-02T19:13:49.763Z,15.90
2018-05-02T19:16:18.065Z,15.80
2018-05-02T19:18:47.090Z,15.60
2018-05-02T19:21:15.357Z,15.60
2018-05-02T19:23:43.742Z,15.60
2018-05-02T19:26:12.050Z,15.60
2018-05-02T19:28:40.401Z,15.60
2018-05-02T19:31:08.714Z,15.50
2018-05-02T19:33:36.982Z,15.50
2018-05-02T19:36:06.772Z,15.30
2018-05-02T19:38:35.053Z,15.40
2018-05-02T19:41:03.387Z,15.40
2018-05-02T19:43:31.704Z,15.40
2018-05-02T19:46:00.023Z,15.30
2018-05-02T19:48:28.259Z,15.30
2018-05-02T19:50:56.556Z,15.30
2018-05-02T19:53:24.798Z,15.30
2018-05-02T19:55:53.109Z,15.20
2018-05-02T19:58:21.394Z,15.20
2018-05-02T20:00:49.685Z,15.20
2018-05-02T20:03:17.930Z,15.10
2018-05-02T20:05:46.194Z,15.10
2018-05-02T20:08:14.479Z,15.10
2018-05-02T20:10:42.776Z,15.00
2018-05-02T20:13:11.805Z,14.90
2018-05-02T20:15:40.184Z,14.90
2018-05-02T20:18:08.600Z,14.90
2018-05-02T20:20:36.891Z,14.80
2018-05-02T20:23:05.288Z,14.80
2018-05-02T20:25:33.618Z,14.80
2018-05-02T20:28:01.934Z,14.80
2018-05-02T20:30:31.081Z,14.70
2018-05-02T20:32:59.525Z,14.60
2018-05-02T20:35:27.798Z,14.60
2018-05-02T20:37:56.063Z,14.60
2018-05-02T20:40:33.442Z,14.50
2018-05-02T20:43:02.454Z,14.50
2018-05-02T20:45:30.751Z,14.40
2018-05-02T20:47:59.067Z,14.40
2018-05-02T20:50:27.352Z,14.40
2018-05-02T20:52:56.408Z,14.30
2018-05-02T20:55:24.677Z,14.20
2018-05-02T20:57:53.130Z,14.20
2018-05-02T21:00:21.390Z,14.10
2018-05-02T21:02:49.665Z,14.00
2018-05-02T21:05:17.950Z,14.00
2018-05-02T21:07:46.218Z,14.00
2018-05-02T21:10:14.463Z,14.00
2018-05-02T21:12:43.522Z,14.00
2018-05-02T21:15:11.829Z,13.90
2018-05-02T21:17:40.083Z,14.00
2018-05-02T21:20:08.348Z,13.90
2018-05-02T21:22:36.637Z,13.90
2018-05-02T21:25:04.891Z,13.90
2018-05-02T21:27:33.203Z,13.90
2018-05-02T21:30:02.274Z,14.00
2018-05-02T21:32:30.555Z,13.90
2018-05-02T21:34:58.834Z,14.00
2018-05-02T21:37:27.173Z,14.10
2018-05-02T21:39:55.433Z,14.10
2018-05-02T21:42:23.729Z,14.10
2018-05-02T21:44:51.985Z,14.10
2018-05-02T21:47:20.324Z,14.20
2018-05-02T21:49:48.845Z,14.20
2018-05-02T21:52:17.999Z,14.20
2018-05-02T21:54:46.448Z,14.10
2018-05-02T21:57:14.652Z,14.20
2018-05-02T21:59:42.938Z,14.20
2018-05-02T22:02:11.173Z,14.20
2018-05-02T22:04:39.444Z,14.10
2018-05-02T22:07:07.707Z,14.10
2018-05-02T22:09:36.002Z,14.10
2018-05-02T22:12:04.236Z,14.10
2018-05-02T22:14:32.684Z,14.10
2018-05-02T22:17:01.713Z,14.10
2018-05-02T22:19:29.953Z,14.00
2018-05-02T22:21:58.257Z,14.10
2018-05-02T22:24:26.704Z,14.00
2018-05-02T22:26:54.968Z,14.00
2018-05-02T22:29:23.224Z,14.00
2018-05-02T22:31:51.525Z,14.00
2018-05-02T22:34:19.777Z,14.00
2018-05-02T22:36:48.057Z,14.00
2018-05-02T22:39:16.322Z,14.00
2018-05-02T22:41:44.609Z,14.10
2018-05-02T22:44:12.901Z,14.10
2018-05-02T22:46:41.998Z,14.10
2018-05-02T22:49:10.255Z,14.10
2018-05-02T22:51:38.522Z,14.20
2018-05-02T22:54:06.785Z,14.10
2018-05-02T22:56:35.066Z,14.20
2018-05-02T22:59:03.338Z,14.20
2018-05-02T23:01:31.605Z,14.20
2018-05-02T23:03:59.860Z,14.20
2018-05-02T23:06:28.133Z,14.20
2018-05-02T23:08:56.394Z,14.20
2018-05-02T23:11:25.528Z,14.20
2018-05-02T23:13:54.617Z,14.20
2018-05-02T23:16:22.911Z,14.10
2018-05-02T23:18:51.260Z,14.20
2018-05-02T23:21:19.688Z,14.20
2018-05-02T23:23:47.974Z,14.20
2018-05-02T23:26:17.033Z,14.20
2018-05-02T23:28:45.394Z,14.20
2018-05-02T23:31:13.641Z,14.20
2018-05-02T23:33:41.894Z,14.20
2018-05-02T23:36:10.170Z,14.20
2018-05-02T23:38:39.214Z,14.10
2018-05-02T23:41:07.478Z,14.10
2018-05-02T23:43:35.765Z,14.10
2018-05-02T23:46:04.049Z,14.10
2018-05-02T23:48:32.414Z,14.10
2018-05-02T23:51:00.666Z,14.00
2018-05-02T23:53:28.913Z,14.00
2018-05-02T23:55:57.168Z,13.90
2018-05-02T23:58:25.424Z,13.90
